Time;durP1;ratioP1;P1;durP2;ratioP2;P2;SDS_P1;SDS_P2;PMS_P1;PMS_P2;Temp;Humidity;BMP_temperature;BMP_pressure;BME280_temperature;BME280_humidity;BME280_pressure;Samples;Min_cycle;Max_cycle;Signal;HPM_P1;HPM_P2
2022/07/17 00:01:53;;;;;;;4.80;2.60;;;;;;;;;;5049368;28;20029;-83
2022/07/17 00:04:19;;;;;;;3.30;2.40;;;;;;;;;;5047604;28;20064;-83
2022/07/17 00:06:44;;;;;;;3.88;2.40;;;;;;;;;;5047733;28;20037;-83
2022/07/17 00:09:10;;;;;;;5.93;2.47;;;;;;;;;;5048002;28;20045;-83
2022/07/17 00:11:35;;;;;;;5.18;2.30;;;;;;;;;;5049002;28;20053;-82
2022/07/17 00:14:01;;;;;;;3.63;2.30;;;;;;;;;;5047146;28;20116;-82
2022/07/17 00:16:26;;;;;;;2.97;2.20;;;;;;;;;;5048578;28;20041;-83
2022/07/17 00:18:52;;;;;;;3.60;2.22;;;;;;;;;;5047855;28;20037;-83
2022/07/17 00:21:17;;;;;;;4.20;2.20;;;;;;;;;;5048511;28;20041;-81
2022/07/17 00:23:43;;;;;;;9.30;2.20;;;;;;;;;;5048595;28;20044;-83
2022/07/17 00:26:08;;;;;;;3.65;2.20;;;;;;;;;;5048462;28;20038;-83
2022/07/17 00:28:34;;;;;;;4.28;2.10;;;;;;;;;;5047847;28;20058;-82
2022/07/17 00:30:59;;;;;;;5.28;2.35;;;;;;;;;;5047892;28;20155;-83
2022/07/17 00:33:25;;;;;;;4.07;1.95;;;;;;;;;;5047950;28;20033;-83
2022/07/17 00:35:50;;;;;;;3.25;2.00;;;;;;;;;;5048246;28;20034;-82
2022/07/17 00:38:16;;;;;;;7.25;2.10;;;;;;;;;;5048114;28;20524;-82
2022/07/17 00:40:41;;;;;;;3.97;2.10;;;;;;;;;;5048676;28;20108;-82
2022/07/17 00:43:07;;;;;;;4.03;1.88;;;;;;;;;;5048186;28;20029;-82
2022/07/17 00:45:32;;;;;;;2.95;1.90;;;;;;;;;;5047965;28;20037;-82
2022/07/17 00:48:01;;;;;;;4.43;2.13;;;;;;;;;;5047650;28;20093;-83
2022/07/17 00:50:46;;;;;;;6.88;2.20;;;;;;;;;;5047932;28;20093;-82
2022/07/17 00:53:11;;;;;;;4.63;2.15;;;;;;;;;;5047928;28;20029;-82
2022/07/17 00:55:40;;;;;;;6.22;2.05;;;;;;;;;;5047654;28;20048;-82
2022/07/17 00:58:08;;;;;;;4.40;2.00;;;;;;;;;;5047933;28;20040;-82
2022/07/17 01:00:33;;;;;;;5.15;2.20;;;;;;;;;;5030291;28;20033;-82
2022/07/17 01:02:59;;;;;;;3.28;1.90;;;;;;;;;;5047325;28;20071;-82
2022/07/17 01:05:25;;;;;;;3.40;2.08;;;;;;;;;;5046772;28;20041;-83
2022/07/17 01:07:51;;;;;;;10.07;2.20;;;;;;;;;;5047514;28;20051;-82
2022/07/17 01:10:18;;;;;;;4.43;2.00;;;;;;;;;;5047327;28;20032;-82
2022/07/17 01:12:45;;;;;;;5.65;2.22;;;;;;;;;;5046449;28;20037;-82
2022/07/17 01:15:11;;;;;;;3.25;1.77;;;;;;;;;;5046342;28;20044;-82
2022/07/17 01:17:37;;;;;;;5.03;1.92;;;;;;;;;;5045919;28;20476;-82
2022/07/17 01:20:05;;;;;;;4.63;2.35;;;;;;;;;;5047499;28;20057;-83
2022/07/17 01:22:30;;;;;;;3.42;2.10;;;;;;;;;;5046384;28;20037;-82
2022/07/17 01:24:56;;;;;;;3.10;2.00;;;;;;;;;;5046848;28;20040;-82
2022/07/17 01:27:21;;;;;;;4.55;2.40;;;;;;;;;;5047618;28;20490;-82
2022/07/17 01:29:47;;;;;;;5.00;2.10;;;;;;;;;;5048118;28;20025;-82
2022/07/17 01:32:12;;;;;;;2.35;1.83;;;;;;;;;;5047681;28;20044;-83
2022/07/17 01:34:38;;;;;;;3.97;2.03;;;;;;;;;;5045668;28;20041;-82
2022/07/17 01:37:03;;;;;;;6.93;2.10;;;;;;;;;;5047492;28;20037;-83
2022/07/17 01:42:13;;;;;;;3.50;2.10;;;;;;;;;;5048288;28;20048;-82
2022/07/17 01:44:38;;;;;;;3.67;2.38;;;;;;;;;;5046647;28;20025;-82
2022/07/17 01:47:04;;;;;;;2.83;2.00;;;;;;;;;;5046725;28;20032;-82
2022/07/17 01:49:30;;;;;;;5.60;2.10;;;;;;;;;;5045579;28;20045;-82
2022/07/17 01:51:59;;;;;;;4.13;2.08;;;;;;;;;;5046303;28;20030;-82
2022/07/17 01:54:26;;;;;;;2.88;2.00;;;;;;;;;;5045359;28;20037;-83
2022/07/17 01:56:51;;;;;;;2.92;1.67;;;;;;;;;;5046593;28;20025;-83
2022/07/17 01:59:17;;;;;;;5.10;2.15;;;;;;;;;;5046754;28;20101;-84
2022/07/17 02:01:42;;;;;;;6.65;2.15;;;;;;;;;;5046308;28;20037;-83
2022/07/17 02:04:08;;;;;;;3.47;1.95;;;;;;;;;;5046873;28;20037;-83
2022/07/17 02:06:33;;;;;;;5.10;2.20;;;;;;;;;;5045135;28;20033;-82
2022/07/17 02:08:59;;;;;;;3.00;1.90;;;;;;;;;;5046507;28;20041;-82
2022/07/17 02:11:25;;;;;;;2.63;1.88;;;;;;;;;;5047449;28;20038;-83
2022/07/17 02:13:50;;;;;;;2.90;2.15;;;;;;;;;;5045512;28;20036;-83
2022/07/17 02:16:16;;;;;;;4.35;2.22;;;;;;;;;;5045689;28;20033;-83
2022/07/17 02:18:41;;;;;;;3.60;1.77;;;;;;;;;;5046776;28;20038;-83
2022/07/17 02:21:07;;;;;;;3.78;1.90;;;;;;;;;;5046458;28;20041;-82
2022/07/17 02:23:32;;;;;;;3.92;2.00;;;;;;;;;;5047238;28;20052;-82
2022/07/17 02:25:58;;;;;;;2.10;1.73;;;;;;;;;;5044948;28;20038;-82
2022/07/17 02:28:23;;;;;;;2.90;1.90;;;;;;;;;;5045928;28;20029;-82
2022/07/17 02:30:49;;;;;;;3.10;2.10;;;;;;;;;;5045194;28;20047;-81
2022/07/17 02:33:15;;;;;;;5.97;1.90;;;;;;;;;;5044879;28;20033;-82
2022/07/17 02:35:40;;;;;;;4.28;2.20;;;;;;;;;;5028926;28;20029;-82
2022/07/17 02:38:06;;;;;;;5.40;1.80;;;;;;;;;;5046429;28;20110;-84
2022/07/17 02:40:31;;;;;;;7.88;2.45;;;;;;;;;;5045945;28;20034;-83
2022/07/17 02:42:57;;;;;;;2.95;1.98;;;;;;;;;;5045344;28;20464;-83
2022/07/17 02:45:24;;;;;;;3.10;2.00;;;;;;;;;;5045901;28;20041;-82
2022/07/17 02:47:51;;;;;;;4.88;1.90;;;;;;;;;;5045110;28;20026;-83
2022/07/17 02:50:17;;;;;;;3.92;2.05;;;;;;;;;;5044984;28;20043;-83
2022/07/17 02:52:43;;;;;;;2.95;1.77;;;;;;;;;;5044916;28;20038;-83
2022/07/17 02:55:10;;;;;;;3.55;2.00;;;;;;;;;;5045808;28;20060;-83
2022/07/17 02:57:39;;;;;;;3.53;1.70;;;;;;;;;;5048759;28;20033;-81
2022/07/17 03:00:07;;;;;;;3.10;1.90;;;;;;;;;;5048802;28;20072;-82
2022/07/17 03:02:33;;;;;;;4.32;1.90;;;;;;;;;;5050259;28;20045;-82
2022/07/17 03:04:58;;;;;;;4.20;1.98;;;;;;;;;;5050164;28;20048;-82
2022/07/17 03:07:24;;;;;;;4.10;2.03;;;;;;;;;;5049825;28;20085;-82
2022/07/17 03:09:49;;;;;;;4.00;1.88;;;;;;;;;;5050243;28;20093;-82
2022/07/17 03:12:15;;;;;;;2.80;1.98;;;;;;;;;;5049216;28;20030;-82
2022/07/17 03:14:40;;;;;;;5.22;1.90;;;;;;;;;;5049544;28;20034;-80
2022/07/17 03:17:06;;;;;;;4.00;2.00;;;;;;;;;;5049667;28;20029;-82
2022/07/17 03:19:32;;;;;;;4.85;2.17;;;;;;;;;;5049403;28;20025;-82
2022/07/17 03:21:58;;;;;;;3.78;2.08;;;;;;;;;;5049380;28;20059;-82
2022/07/17 03:24:23;;;;;;;3.08;1.90;;;;;;;;;;5050048;28;20461;-82
2022/07/17 03:26:49;;;;;;;4.53;1.70;;;;;;;;;;5049299;28;20581;-82
2022/07/17 03:29:17;;;;;;;2.85;1.90;;;;;;;;;;5049415;28;20048;-82
2022/07/17 03:31:46;;;;;;;2.92;1.98;;;;;;;;;;5049490;28;20033;-80
2022/07/17 03:34:13;;;;;;;3.70;2.05;;;;;;;;;;5049300;28;20097;-83
2022/07/17 03:36:38;;;;;;;5.03;2.00;;;;;;;;;;5048971;28;20046;-82
2022/07/17 03:39:04;;;;;;;3.38;1.80;;;;;;;;;;5047532;28;20047;-81
2022/07/17 03:41:30;;;;;;;7.95;2.05;;;;;;;;;;5049399;28;20040;-83
2022/07/17 03:43:55;;;;;;;5.38;2.10;;;;;;;;;;5031945;28;20394;-81
2022/07/17 03:46:21;;;;;;;2.10;1.77;;;;;;;;;;5048829;28;20037;-82
2022/07/17 03:48:47;;;;;;;3.33;2.13;;;;;;;;;;5049468;28;20037;-81
2022/07/17 03:51:12;;;;;;;3.67;2.20;;;;;;;;;;5048622;28;20095;-82
2022/07/17 03:53:38;;;;;;;5.38;2.10;;;;;;;;;;5048330;28;20037;-82
2022/07/17 03:56:04;;;;;;;3.25;1.73;;;;;;;;;;5048975;28;20037;-82
2022/07/17 03:58:30;;;;;;;2.47;1.80;;;;;;;;;;5049429;28;20037;-82
2022/07/17 04:00:56;;;;;;;2.50;1.70;;;;;;;;;;5049144;28;20037;-82
2022/07/17 04:03:22;;;;;;;3.50;1.88;;;;;;;;;;5048346;28;20033;-82
2022/07/17 04:05:47;;;;;;;2.30;1.85;;;;;;;;;;5048493;28;20033;-82
2022/07/17 04:08:13;;;;;;;4.05;1.80;;;;;;;;;;5047310;28;20033;-82
2022/07/17 04:10:38;;;;;;;3.33;2.08;;;;;;;;;;5048726;28;20029;-82
2022/07/17 04:13:04;;;;;;;2.80;1.90;;;;;;;;;;5049030;28;20030;-82
2022/07/17 04:18:14;;;;;;;2.88;1.92;;;;;;;;;;5048591;28;20049;-82
2022/07/17 04:20:39;;;;;;;2.80;2.00;;;;;;;;;;5048578;28;20041;-82
2022/07/17 04:23:05;;;;;;;2.95;2.00;;;;;;;;;;5048360;28;20120;-82
2022/07/17 04:25:31;;;;;;;2.88;2.00;;;;;;;;;;5048571;28;20059;-82
2022/07/17 04:27:57;;;;;;;4.85;2.10;;;;;;;;;;5048588;28;20052;-82
2022/07/17 04:30:22;;;;;;;6.72;2.10;;;;;;;;;;5046876;28;20083;-83
2022/07/17 04:32:48;;;;;;;8.93;2.53;;;;;;;;;;5048688;28;20037;-81
2022/07/17 04:35:13;;;;;;;4.88;2.00;;;;;;;;;;5047935;28;20025;-83
2022/07/17 04:37:39;;;;;;;4.80;2.10;;;;;;;;;;5046565;28;20071;-83
2022/07/17 04:40:05;;;;;;;7.18;2.30;;;;;;;;;;5047060;28;20037;-84
2022/07/17 04:42:31;;;;;;;3.70;2.10;;;;;;;;;;5048461;28;20030;-83
2022/07/17 04:44:56;;;;;;;5.53;2.15;;;;;;;;;;5047030;28;20063;-83
2022/07/17 04:47:22;;;;;;;3.35;1.92;;;;;;;;;;5047269;28;20041;-83
2022/07/17 04:49:47;;;;;;;3.53;2.05;;;;;;;;;;5046961;28;20393;-83
2022/07/17 04:52:13;;;;;;;3.65;1.90;;;;;;;;;;5047671;28;20097;-82
2022/07/17 04:54:38;;;;;;;2.47;1.70;;;;;;;;;;5047701;28;20051;-83
2022/07/17 04:57:04;;;;;;;3.47;1.88;;;;;;;;;;5047733;28;20091;-83
2022/07/17 04:59:29;;;;;;;3.88;1.90;;;;;;;;;;5047098;28;20410;-83
2022/07/17 05:01:55;;;;;;;4.15;2.10;;;;;;;;;;5047372;28;20048;-82
2022/07/17 05:04:20;;;;;;;3.67;1.95;;;;;;;;;;5045111;28;20064;-82
2022/07/17 05:06:46;;;;;;;2.55;1.85;;;;;;;;;;5046792;28;20040;-83
2022/07/17 05:09:12;;;;;;;3.67;2.17;;;;;;;;;;5047329;28;20041;-82
2022/07/17 05:11:37;;;;;;;2.53;1.70;;;;;;;;;;5047385;28;20048;-83
2022/07/17 05:14:04;;;;;;;4.43;1.90;;;;;;;;;;5047385;28;20095;-83
2022/07/17 05:16:29;;;;;;;3.70;2.20;;;;;;;;;;5047050;28;20033;-84
2022/07/17 05:18:55;;;;;;;4.22;2.28;;;;;;;;;;5046289;28;20034;-83
2022/07/17 05:21:20;;;;;;;2.10;1.52;;;;;;;;;;5046737;28;20434;-83
2022/07/17 05:23:46;;;;;;;3.97;2.10;;;;;;;;;;5046019;28;20021;-83
2022/07/17 05:26:11;;;;;;;2.88;2.08;;;;;;;;;;5045355;28;20038;-83
2022/07/17 05:28:37;;;;;;;2.83;1.80;;;;;;;;;;5047489;28;20026;-82
2022/07/17 05:31:02;;;;;;;5.55;1.80;;;;;;;;;;5029378;28;20025;-82
2022/07/17 05:33:28;;;;;;;2.88;1.75;;;;;;;;;;5047356;28;20171;-82
2022/07/17 05:35:53;;;;;;;4.95;2.00;;;;;;;;;;5046392;28;20101;-82
2022/07/17 05:38:19;;;;;;;3.40;1.85;;;;;;;;;;5047037;28;20040;-82
2022/07/17 05:40:44;;;;;;;3.33;1.63;;;;;;;;;;5045746;28;20030;-82
2022/07/17 05:43:10;;;;;;;2.78;1.70;;;;;;;;;;5047015;28;20494;-83
2022/07/17 05:45:35;;;;;;;3.53;1.70;;;;;;;;;;5046684;28;20034;-83
2022/07/17 05:48:01;;;;;;;2.90;1.85;;;;;;;;;;5045206;28;20037;-82
2022/07/17 05:50:27;;;;;;;3.58;1.80;;;;;;;;;;5046115;28;20033;-81
2022/07/17 05:52:52;;;;;;;4.50;1.77;;;;;;;;;;5047005;28;20037;-82
2022/07/17 05:55:18;;;;;;;2.92;1.70;;;;;;;;;;5045265;28;20030;-82
2022/07/17 05:57:43;;;;;;;4.18;1.75;;;;;;;;;;5046628;28;20044;-83
2022/07/17 06:00:11;;;;;;;2.63;1.80;;;;;;;;;;5045403;28;20087;-83
2022/07/17 06:02:40;;;;;;;3.58;1.75;;;;;;;;;;5045418;28;20096;-83
2022/07/17 06:05:06;;;;;;;4.57;1.48;;;;;;;;;;5046107;28;20032;-83
2022/07/17 06:07:32;;;;;;;4.13;1.65;;;;;;;;;;5046238;28;20482;-83
2022/07/17 06:09:59;;;;;;;3.83;1.63;;;;;;;;;;5046579;28;20080;-83
2022/07/17 06:12:24;;;;;;;2.67;1.63;;;;;;;;;;5047136;28;20038;-83
2022/07/17 06:14:50;;;;;;;2.58;1.60;;;;;;;;;;5044292;28;20053;-83
2022/07/17 06:17:15;;;;;;;3.10;1.70;;;;;;;;;;5046306;28;20045;-83
2022/07/17 06:19:41;;;;;;;4.53;1.80;;;;;;;;;;5043916;28;20101;-83
2022/07/17 06:22:06;;;;;;;2.75;1.60;;;;;;;;;;5045436;28;20389;-83
2022/07/17 06:24:31;;;;;;;4.03;1.70;;;;;;;;;;5045288;28;20040;-84
2022/07/17 06:26:57;;;;;;;3.05;1.70;;;;;;;;;;5038029;28;20037;-82
2022/07/17 06:29:22;;;;;;;2.75;1.70;;;;;;;;;;5026064;28;20061;-83
2022/07/17 06:31:48;;;;;;;1.92;1.50;;;;;;;;;;5035617;28;20057;-82
2022/07/17 06:34:13;;;;;;;5.93;1.60;;;;;;;;;;5032953;28;20042;-83
2022/07/17 06:36:39;;;;;;;2.45;1.45;;;;;;;;;;5013321;28;20379;-82
2022/07/17 06:39:04;;;;;;;3.13;1.70;;;;;;;;;;5029283;28;20030;-83
2022/07/17 06:41:33;;;;;;;3.60;1.60;;;;;;;;;;5044000;28;20029;-83
2022/07/17 06:43:59;;;;;;;4.88;1.60;;;;;;;;;;5049347;28;20041;-84
2022/07/17 06:46:24;;;;;;;3.33;1.60;;;;;;;;;;5043396;28;20492;-84
2022/07/17 06:48:51;;;;;;;3.40;1.70;;;;;;;;;;5043022;28;20040;-84
2022/07/17 06:51:17;;;;;;;2.92;1.60;;;;;;;;;;5045413;28;20065;-83
2022/07/17 06:53:43;;;;;;;2.95;1.60;;;;;;;;;;5041999;28;20482;-84
2022/07/17 06:56:08;;;;;;;3.00;1.60;;;;;;;;;;5043105;28;20052;-84
2022/07/17 06:58:34;;;;;;;3.50;1.60;;;;;;;;;;5037369;28;20029;-84
2022/07/17 07:01:00;;;;;;;2.80;1.63;;;;;;;;;;5023403;28;20037;-84
2022/07/17 07:03:26;;;;;;;3.25;1.63;;;;;;;;;;5035482;28;20037;-85
2022/07/17 07:05:51;;;;;;;2.70;1.80;;;;;;;;;;5041038;28;20045;-83
2022/07/17 07:08:17;;;;;;;3.10;1.60;;;;;;;;;;5043010;28;20110;-82
2022/07/17 07:10:44;;;;;;;4.15;1.63;;;;;;;;;;5047067;28;20040;-83
2022/07/17 07:13:13;;;;;;;3.20;1.70;;;;;;;;;;5050876;28;20048;-83
2022/07/17 07:15:39;;;;;;;3.22;1.70;;;;;;;;;;5048334;28;20517;-84
2022/07/17 07:18:04;;;;;;;4.38;1.50;;;;;;;;;;5044964;28;20037;-85
2022/07/17 07:20:29;;;;;;;2.65;1.80;;;;;;;;;;5032159;28;20491;-82
2022/07/17 07:22:55;;;;;;;3.15;1.50;;;;;;;;;;5030494;28;20037;-84
2022/07/17 07:25:21;;;;;;;3.35;1.50;;;;;;;;;;5028911;28;20477;-82
2022/07/17 07:27:47;;;;;;;4.15;1.60;;;;;;;;;;5026669;28;20045;-84
2022/07/17 07:30:12;;;;;;;3.83;1.42;;;;;;;;;;5027041;28;20030;-80
2022/07/17 07:32:39;;;;;;;3.88;1.50;;;;;;;;;;5025301;28;20049;-84
2022/07/17 07:35:06;;;;;;;2.50;1.60;;;;;;;;;;5023553;28;20127;-84
2022/07/17 07:37:32;;;;;;;4.80;1.92;;;;;;;;;;5023432;28;20427;-83
2022/07/17 07:39:59;;;;;;;5.05;1.73;;;;;;;;;;5022351;28;20034;-82
2022/07/17 07:42:24;;;;;;;5.55;1.85;;;;;;;;;;5023124;28;20045;-85
2022/07/17 07:44:50;;;;;;;4.10;1.85;;;;;;;;;;5025277;28;20041;-84
2022/07/17 07:47:15;;;;;;;2.50;1.70;;;;;;;;;;5025661;28;20121;-84
2022/07/17 07:49:41;;;;;;;4.57;1.77;;;;;;;;;;5024348;28;20083;-86
2022/07/17 07:52:06;;;;;;;5.72;1.77;;;;;;;;;;5024634;28;20037;-85
2022/07/17 07:54:32;;;;;;;4.00;1.83;;;;;;;;;;5025360;28;20029;-84
2022/07/17 07:56:58;;;;;;;6.07;1.70;;;;;;;;;;5026014;28;20033;-85
2022/07/17 07:59:23;;;;;;;5.20;1.80;;;;;;;;;;5026532;28;20026;-85
2022/07/17 08:01:49;;;;;;;3.25;2.00;;;;;;;;;;5026148;28;20034;-85
2022/07/17 08:04:15;;;;;;;3.47;1.95;;;;;;;;;;5026361;28;20125;-85
2022/07/17 08:06:42;;;;;;;2.95;1.80;;;;;;;;;;5025916;28;20161;-85
2022/07/17 08:09:08;;;;;;;4.68;1.73;;;;;;;;;;5025764;28;20033;-84
2022/07/17 08:11:33;;;;;;;3.97;1.80;;;;;;;;;;5026082;28;20022;-82
2022/07/17 08:13:59;;;;;;;4.15;1.80;;;;;;;;;;5025567;28;20038;-83
2022/07/17 08:16:25;;;;;;;4.45;1.90;;;;;;;;;;5026176;28;20045;-84
2022/07/17 08:18:50;;;;;;;3.38;1.90;;;;;;;;;;5025079;28;20034;-84
2022/07/17 08:21:16;;;;;;;3.92;2.00;;;;;;;;;;5026935;28;20038;-84
2022/07/17 08:23:42;;;;;;;3.22;1.80;;;;;;;;;;5025155;28;20096;-84
2022/07/17 08:26:07;;;;;;;4.13;2.00;;;;;;;;;;5024699;28;20108;-84
2022/07/17 08:28:33;;;;;;;5.78;2.10;;;;;;;;;;5027029;28;20037;-85
2022/07/17 08:30:58;;;;;;;2.55;1.95;;;;;;;;;;5025360;28;20034;-84
2022/07/17 08:33:24;;;;;;;3.22;2.00;;;;;;;;;;5023552;28;20033;-85
2022/07/17 08:35:49;;;;;;;6.30;1.90;;;;;;;;;;5026381;28;20045;-84
2022/07/17 08:38:15;;;;;;;3.03;1.90;;;;;;;;;;5026767;28;20041;-85
2022/07/17 08:40:43;;;;;;;3.22;1.90;;;;;;;;;;5023052;28;20101;-85
2022/07/17 08:43:09;;;;;;;4.57;1.67;;;;;;;;;;5024864;28;20125;-85
2022/07/17 08:45:35;;;;;;;3.08;1.60;;;;;;;;;;5023892;28;20026;-85
2022/07/17 08:48:01;;;;;;;2.25;1.90;;;;;;;;;;5023882;28;20117;-85
2022/07/17 08:50:33;;;;;;;2.30;1.58;;;;;;;;;;5024793;28;20188;-86
2022/07/17 08:52:59;;;;;;;5.70;1.88;;;;;;;;;;5024881;28;20042;-85
2022/07/17 08:55:25;;;;;;;5.50;1.95;;;;;;;;;;5023755;28;20034;-85
2022/07/17 08:57:50;;;;;;;2.78;1.60;;;;;;;;;;5025273;28;20072;-85
2022/07/17 09:00:18;;;;;;;3.08;1.80;;;;;;;;;;5024636;28;20034;-85
2022/07/17 09:02:56;;;;;;;3.80;2.00;;;;;;;;;;5023405;28;20029;-85
2022/07/17 09:05:23;;;;;;;3.03;1.70;;;;;;;;;;5024140;28;20042;-85
2022/07/17 09:07:49;;;;;;;4.88;1.92;;;;;;;;;;5024885;28;20088;-85
2022/07/17 09:10:15;;;;;;;3.30;1.75;;;;;;;;;;5025041;28;20381;-85
2022/07/17 09:12:41;;;;;;;4.07;1.80;;;;;;;;;;5025139;28;20040;-85
2022/07/17 09:15:18;;;;;;;3.03;1.80;;;;;;;;;;5025235;28;20053;-85
2022/07/17 09:17:55;;;;;;;2.70;1.88;;;;;;;;;;5024101;28;20048;-85
2022/07/17 09:20:22;;;;;;;3.50;1.92;;;;;;;;;;5023683;28;20034;-85
2022/07/17 09:23:02;;;;;;;3.55;2.00;;;;;;;;;;5024481;28;20046;-85
2022/07/17 09:25:42;;;;;;;4.68;1.92;;;;;;;;;;5025783;28;20033;-85
2022/07/17 09:28:11;;;;;;;5.40;1.90;;;;;;;;;;5023484;28;20065;-85
2022/07/17 09:30:39;;;;;;;5.45;1.77;;;;;;;;;;5024652;28;20030;-85
2022/07/17 09:33:08;;;;;;;5.22;1.90;;;;;;;;;;5024835;28;20030;-85
2022/07/17 09:35:33;;;;;;;3.75;2.00;;;;;;;;;;5025053;28;20057;-85
2022/07/17 09:37:59;;;;;;;5.43;1.80;;;;;;;;;;5025062;28;20125;-85
2022/07/17 09:43:08;;;;;;;6.80;2.00;;;;;;;;;;5025232;28;20054;-85
2022/07/17 09:45:35;;;;;;;4.95;1.92;;;;;;;;;;5025223;28;20033;-85
2022/07/17 09:48:02;;;;;;;2.80;1.85;;;;;;;;;;5024158;28;20046;-85
2022/07/17 09:50:28;;;;;;;3.40;1.80;;;;;;;;;;5025889;28;20022;-85
2022/07/17 09:52:56;;;;;;;7.93;1.90;;;;;;;;;;5025436;28;20026;-85
2022/07/17 09:55:29;;;;;;;3.47;1.85;;;;;;;;;;5024816;28;20025;-85
2022/07/17 09:57:55;;;;;;;3.72;1.83;;;;;;;;;;5025666;28;20057;-85
2022/07/17 10:00:22;;;;;;;2.67;1.70;;;;;;;;;;5024628;28;20036;-85
2022/07/17 10:02:48;;;;;;;3.13;1.80;;;;;;;;;;5024587;28;20049;-85
2022/07/17 10:05:15;;;;;;;2.97;1.70;;;;;;;;;;5023786;28;20038;-85
2022/07/17 10:07:45;;;;;;;2.95;1.80;;;;;;;;;;5024594;28;20080;-85
2022/07/17 10:10:12;;;;;;;5.28;1.70;;;;;;;;;;5025013;28;20034;-85
2022/07/17 10:12:41;;;;;;;2.20;1.60;;;;;;;;;;5024528;28;20033;-85
2022/07/17 10:15:08;;;;;;;3.75;1.63;;;;;;;;;;5024819;28;20066;-86
2022/07/17 10:17:34;;;;;;;4.63;1.80;;;;;;;;;;5023553;28;20029;-86
2022/07/17 10:20:00;;;;;;;3.83;1.52;;;;;;;;;;5024349;28;20033;-87
2022/07/17 10:22:26;;;;;;;6.97;1.65;;;;;;;;;;5023997;28;20080;-86
2022/07/17 10:24:56;;;;;;;2.53;1.70;;;;;;;;;;5024487;28;20042;-86
2022/07/17 10:27:30;;;;;;;4.57;1.50;;;;;;;;;;5025224;28;20065;-86
2022/07/17 10:30:02;;;;;;;3.05;1.70;;;;;;;;;;5023945;28;20057;-86
2022/07/17 10:32:28;;;;;;;4.13;1.88;;;;;;;;;;5025090;28;20097;-86
2022/07/17 10:35:05;;;;;;;3.95;1.60;;;;;;;;;;5023663;28;20034;-86
2022/07/17 10:37:36;;;;;;;4.22;1.67;;;;;;;;;;5023528;28;20184;-86
2022/07/17 10:40:07;;;;;;;2.75;1.60;;;;;;;;;;5025049;28;20046;-86
2022/07/17 10:42:58;;;;;;;2.85;1.70;;;;;;;;;;5039714;28;20040;-86
2022/07/17 10:45:35;;;;;;;4.05;1.80;;;;;;;;;;5024255;28;20030;-86
2022/07/17 10:48:00;;;;;;;3.28;1.70;;;;;;;;;;5023744;28;20057;-86
2022/07/17 10:50:29;;;;;;;4.95;1.60;;;;;;;;;;5024493;28;20034;-86
2022/07/17 10:53:03;;;;;;;4.45;1.67;;;;;;;;;;5023587;28;20048;-86
2022/07/17 10:55:29;;;;;;;2.38;1.60;;;;;;;;;;5023908;28;20105;-87
2022/07/17 10:57:56;;;;;;;3.90;1.65;;;;;;;;;;5024654;28;20037;-86
2022/07/17 11:00:22;;;;;;;5.45;1.80;;;;;;;;;;5023782;28;20395;-86
2022/07/17 11:02:47;;;;;;;3.67;1.67;;;;;;;;;;5023611;28;20045;-86
2022/07/17 11:05:14;;;;;;;4.25;1.60;;;;;;;;;;5023625;28;20037;-86
2022/07/17 11:07:59;;;;;;;2.45;1.70;;;;;;;;;;5024249;28;20057;-86
2022/07/17 11:10:26;;;;;;;3.83;1.80;;;;;;;;;;5025765;28;20034;-85
2022/07/17 11:13:06;;;;;;;3.92;1.50;;;;;;;;;;5022127;28;20088;-85
2022/07/17 11:15:48;;;;;;;5.30;1.75;;;;;;;;;;5019742;28;20042;-85
2022/07/17 11:18:19;;;;;;;4.10;2.10;;;;;;;;;;5022036;28;20602;-85
2022/07/17 11:20:59;;;;;;;3.42;1.63;;;;;;;;;;5026800;28;20030;-86
2022/07/17 11:23:29;;;;;;;2.28;1.70;;;;;;;;;;5024211;28;20045;-84
2022/07/17 11:25:57;;;;;;;2.10;1.60;;;;;;;;;;5023328;28;20057;-85
2022/07/17 11:28:35;;;;;;;2.83;1.42;;;;;;;;;;5023676;28;20034;-85
2022/07/17 11:31:02;;;;;;;2.67;1.60;;;;;;;;;;5024444;28;20029;-85
2022/07/17 11:33:28;;;;;;;3.25;1.60;;;;;;;;;;5024390;28;20042;-85
2022/07/17 11:35:56;;;;;;;5.00;1.70;;;;;;;;;;5024197;28;20079;-84
2022/07/17 11:38:27;;;;;;;3.28;1.70;;;;;;;;;;5022861;28;20054;-85
2022/07/17 11:40:53;;;;;;;4.18;1.70;;;;;;;;;;5024689;28;20034;-85
2022/07/17 11:43:19;;;;;;;7.22;1.83;;;;;;;;;;5023771;28;20060;-85
2022/07/17 11:45:45;;;;;;;6.18;1.80;;;;;;;;;;5022767;28;20030;-84
2022/07/17 11:48:10;;;;;;;2.55;1.80;;;;;;;;;;5021461;28;20034;-85
2022/07/17 11:50:37;;;;;;;2.38;1.80;;;;;;;;;;5023876;28;20034;-85
2022/07/17 11:53:04;;;;;;;2.60;1.55;;;;;;;;;;5021551;28;20034;-85
2022/07/17 11:55:37;;;;;;;5.13;2.10;;;;;;;;;;5022253;28;20040;-85
2022/07/17 11:58:03;;;;;;;;;;;;;;;;;;5020055;28;20037;-82
2022/07/17 12:00:29;;;;;;;2.13;1.52;;;;;;;;;;5022299;28;19918;-85
2022/07/17 12:03:03;;;;;;;4.13;2.00;;;;;;;;;;5022068;28;20037;-85
2022/07/17 12:05:31;;;;;;;4.07;1.70;;;;;;;;;;5023354;28;20537;-85
2022/07/17 12:07:57;;;;;;;5.40;1.77;;;;;;;;;;5032879;28;20451;-85
2022/07/17 12:10:24;;;;;;;5.50;1.88;;;;;;;;;;5033608;28;20057;-85
2022/07/17 12:13:00;;;;;;;4.22;1.77;;;;;;;;;;5031803;28;20555;-85
2022/07/17 12:15:45;;;;;;;3.28;1.75;;;;;;;;;;5042293;28;20041;-85
2022/07/17 12:18:26;;;;;;;3.65;1.77;;;;;;;;;;5042527;28;20041;-85
2022/07/17 12:20:54;;;;;;;7.25;1.58;;;;;;;;;;5040996;28;20492;-84
2022/07/17 12:23:36;;;;;;;4.13;1.73;;;;;;;;;;5040447;28;20068;-84
2022/07/17 12:26:07;;;;;;;3.17;1.90;;;;;;;;;;5040085;28;20041;-85
2022/07/17 12:28:33;;;;;;;2.83;1.75;;;;;;;;;;5040397;28;20084;-85
2022/07/17 12:30:59;;;;;;;3.13;1.67;;;;;;;;;;5039870;28;20037;-85
2022/07/17 12:33:24;;;;;;;3.70;1.63;;;;;;;;;;5041385;28;20112;-85
2022/07/17 12:35:50;;;;;;;4.90;1.60;;;;;;;;;;5041124;28;20033;-85
2022/07/17 12:38:15;;;;;;;3.13;1.80;;;;;;;;;;5041634;28;20428;-85
2022/07/17 12:40:41;;;;;;;5.60;1.88;;;;;;;;;;5023547;28;20038;-85
2022/07/17 12:43:08;;;;;;;3.50;1.60;;;;;;;;;;5040589;28;20348;-85
2022/07/17 12:45:34;;;;;;;3.55;1.90;;;;;;;;;;5041004;28;20049;-85
2022/07/17 12:47:59;;;;;;;4.93;1.90;;;;;;;;;;5007120;28;20085;-85
2022/07/17 12:50:25;;;;;;;4.60;1.60;;;;;;;;;;5041165;28;20036;-85
2022/07/17 12:52:51;;;;;;;3.80;1.73;;;;;;;;;;5041616;28;20048;-85
2022/07/17 12:55:17;;;;;;;3.45;1.73;;;;;;;;;;5041248;28;20041;-85
2022/07/17 12:57:43;;;;;;;2.78;1.65;;;;;;;;;;5040060;28;20469;-84
2022/07/17 13:00:10;;;;;;;3.53;1.88;;;;;;;;;;5041040;28;20041;-84
2022/07/17 13:02:36;;;;;;;2.58;1.60;;;;;;;;;;5041460;28;20045;-85
2022/07/17 13:05:02;;;;;;;5.35;2.00;;;;;;;;;;5042180;28;20048;-84
2022/07/17 13:07:28;;;;;;;2.85;1.90;;;;;;;;;;5043785;28;20071;-84
2022/07/17 13:09:53;;;;;;;2.78;1.58;;;;;;;;;;5043585;28;20033;-84
2022/07/17 13:12:19;;;;;;;8.32;2.63;;;;;;;;;;5043776;28;20505;-82
2022/07/17 13:14:44;;;;;;;4.55;1.77;;;;;;;;;;5044946;28;20038;-84
2022/07/17 13:17:10;;;;;;;3.05;2.20;;;;;;;;;;5043923;28;20030;-84
2022/07/17 13:19:35;;;;;;;3.83;1.95;;;;;;;;;;5044802;28;20516;-83
2022/07/17 13:22:03;;;;;;;3.78;1.90;;;;;;;;;;5042493;28;20041;-84
2022/07/17 13:24:32;;;;;;;3.08;1.95;;;;;;;;;;5043784;28;20394;-83
2022/07/17 13:26:58;;;;;;;2.50;1.77;;;;;;;;;;5044096;28;20053;-83
2022/07/17 13:29:26;;;;;;;7.35;3.67;;;;;;;;;;5042618;28;20069;-83
2022/07/17 13:31:53;;;;;;;4.43;2.15;;;;;;;;;;5046760;28;20511;-84
2022/07/17 13:34:20;;;;;;;3.20;1.67;;;;;;;;;;5044476;28;20478;-84
2022/07/17 13:36:45;;;;;;;4.28;1.77;;;;;;;;;;5045419;28;20038;-85
2022/07/17 13:39:11;;;;;;;5.20;1.70;;;;;;;;;;5046372;28;20040;-85
2022/07/17 13:41:37;;;;;;;5.65;1.83;;;;;;;;;;5045987;28;20116;-85
2022/07/17 13:44:04;;;;;;;4.50;1.75;;;;;;;;;;5044370;28;20033;-85
2022/07/17 13:46:30;;;;;;;4.10;1.80;;;;;;;;;;5045182;28;20038;-85
2022/07/17 13:48:56;;;;;;;3.80;1.80;;;;;;;;;;5043674;28;20032;-83
2022/07/17 13:51:21;;;;;;;2.55;1.80;;;;;;;;;;5040847;28;20107;-83
2022/07/17 13:53:47;;;;;;;3.78;1.80;;;;;;;;;;5042989;28;20025;-83
2022/07/17 13:56:13;;;;;;;2.78;1.70;;;;;;;;;;5046046;28;20049;-83
2022/07/17 13:58:39;;;;;;;5.57;2.00;;;;;;;;;;5046329;28;20568;-83
2022/07/17 14:01:04;;;;;;;4.82;1.70;;;;;;;;;;5045871;28;20041;-83
2022/07/17 14:03:30;;;;;;;3.90;2.00;;;;;;;;;;5044187;28;20034;-84
2022/07/17 14:05:56;;;;;;;4.40;1.80;;;;;;;;;;5045199;28;20060;-85
2022/07/17 14:08:21;;;;;;;5.20;2.03;;;;;;;;;;5027719;28;20045;-83
2022/07/17 14:10:47;;;;;;;2.05;1.55;;;;;;;;;;5042361;28;20025;-83
2022/07/17 14:13:13;;;;;;;4.30;1.75;;;;;;;;;;5043587;28;20033;-83
2022/07/17 14:15:38;;;;;;;2.58;1.70;;;;;;;;;;5041224;28;20068;-84
2022/07/17 14:18:04;;;;;;;4.13;1.90;;;;;;;;;;5043275;28;20030;-84
2022/07/17 14:20:30;;;;;;;5.95;1.73;;;;;;;;;;5043422;28;20097;-84
2022/07/17 14:22:55;;;;;;;3.83;1.85;;;;;;;;;;5042406;28;20033;-84
2022/07/17 14:25:21;;;;;;;4.05;1.80;;;;;;;;;;5043053;28;20073;-83
2022/07/17 14:27:46;;;;;;;3.58;1.90;;;;;;;;;;5044320;28;20041;-82
2022/07/17 14:30:12;;;;;;;5.50;1.90;;;;;;;;;;5042055;28;20033;-83
2022/07/17 14:32:37;;;;;;;4.55;1.80;;;;;;;;;;5044256;28;20061;-83
2022/07/17 14:35:04;;;;;;;2.47;1.65;;;;;;;;;;5043936;28;20042;-82
2022/07/17 14:37:29;;;;;;;2.58;2.00;;;;;;;;;;5043265;28;20037;-84
2022/07/17 14:39:55;;;;;;;2.45;1.80;;;;;;;;;;5043847;28;20453;-84
2022/07/17 14:42:21;;;;;;;7.63;1.73;;;;;;;;;;5044910;28;20041;-83
2022/07/17 14:44:46;;;;;;;4.03;1.70;;;;;;;;;;5044648;28;20034;-82
2022/07/17 14:47:12;;;;;;;6.85;1.83;;;;;;;;;;5045045;28;20076;-83
2022/07/17 14:49:38;;;;;;;4.80;2.00;;;;;;;;;;5044589;28;20534;-83